createdAt,value
2018-07-10T00:02:31.436Z,5.87
2018-07-10T00:07:18.732Z,6.40
2018-07-10T00:11:03.084Z,5.83
2018-07-10T00:13:31.887Z,5.73
2018-07-10T00:16:00.844Z,6.27
2018-07-10T00:18:29.911Z,6.03
2018-07-10T00:20:58.996Z,2.87
2018-07-10T00:23:28.064Z,3.90
2018-07-10T00:25:57.156Z,3.53
2018-07-10T00:28:26.219Z,2.97
2018-07-10T00:30:55.304Z,3.50
2018-07-10T00:33:24.368Z,4.33
2018-07-10T00:35:53.452Z,4.20
2018-07-10T00:38:34.048Z,4.87
2018-07-10T00:41:03.140Z,4.20
2018-07-10T00:43:32.204Z,7.20
2018-07-10T00:46:01.003Z,6.37
2018-07-10T00:48:30.140Z,4.87
2018-07-10T00:50:59.203Z,1.90
2018-07-10T00:53:28.287Z,7.57
2018-07-10T00:55:57.348Z,4.67
2018-07-10T00:58:26.453Z,3.70
2018-07-10T01:00:55.520Z,2.93
2018-07-10T01:03:24.608Z,4.60
2018-07-10T01:05:53.727Z,6.23
2018-07-10T01:08:22.821Z,6.80
2018-07-10T01:11:11.960Z,5.17
2018-07-10T01:13:41.996Z,7.50
2018-07-10T01:16:11.382Z,4.80
2018-07-10T01:18:41.619Z,3.83
2018-07-10T01:21:13.140Z,4.30
2018-07-10T01:23:42.762Z,4.10
2018-07-10T01:26:14.320Z,2.27
2018-07-10T01:28:43.399Z,4.37
2018-07-10T01:31:12.468Z,5.50
2018-07-10T01:33:41.648Z,2.77
2018-07-10T01:36:10.659Z,3.83
2018-07-10T01:38:39.728Z,6.40
2018-07-10T01:41:08.774Z,4.73
2018-07-10T01:43:37.852Z,3.97
2018-07-10T01:46:06.646Z,6.60
2018-07-10T01:48:35.596Z,8.97
2018-07-10T01:51:04.660Z,2.77
2018-07-10T01:53:33.716Z,6.57
2018-07-10T01:56:02.779Z,5.27
2018-07-10T01:58:31.823Z,5.30
2018-07-10T02:01:00.676Z,6.43
2018-07-10T02:03:29.609Z,5.63
2018-07-10T02:05:58.467Z,4.00
2018-07-10T02:08:27.806Z,4.13
2018-07-10T02:10:56.872Z,4.43
2018-07-10T02:13:25.919Z,6.83
2018-07-10T02:15:54.992Z,6.03
2018-07-10T02:18:23.800Z,5.00
2018-07-10T02:20:56.359Z,8.67
2018-07-10T02:23:44.479Z,5.73
2018-07-10T02:26:25.936Z,9.13
2018-07-10T02:28:55.523Z,7.87
2018-07-10T02:31:24.600Z,6.60
2018-07-10T02:33:54.029Z,7.90
2018-07-10T02:36:24.055Z,4.43
2018-07-10T02:38:57.640Z,7.97
2018-07-10T02:41:26.703Z,9.93
2018-07-10T02:43:58.408Z,8.37
2018-07-10T02:46:28.906Z,8.07
2018-07-10T02:49:05.392Z,6.67
2018-07-10T02:51:35.460Z,8.63
2018-07-10T02:54:04.587Z,6.93
2018-07-10T02:56:33.454Z,7.23
2018-07-10T02:59:03.419Z,9.53
2018-07-10T03:01:32.500Z,11.93
2018-07-10T03:04:01.548Z,7.67
2018-07-10T03:06:32.759Z,7.37
2018-07-10T03:09:02.472Z,7.37
2018-07-10T03:11:32.820Z,11.83
2018-07-10T03:14:02.512Z,10.07
2018-07-10T03:16:31.571Z,11.77
2018-07-10T03:19:00.404Z,9.43
2018-07-10T03:21:29.345Z,9.10
2018-07-10T03:23:58.148Z,9.27
2018-07-10T03:26:27.119Z,11.53
2018-07-10T03:28:56.177Z,8.70
2018-07-10T03:31:25.248Z,9.47
2018-07-10T03:33:54.299Z,8.27
2018-07-10T03:36:23.392Z,7.57
2018-07-10T03:38:52.447Z,10.10
2018-07-10T03:41:21.516Z,8.73
2018-07-10T03:43:50.307Z,9.80
2018-07-10T03:46:19.251Z,12.00
2018-07-10T03:48:48.403Z,8.43
2018-07-10T03:51:17.483Z,12.13
2018-07-10T03:53:47.324Z,11.23
2018-07-10T03:56:17.576Z,10.13
2018-07-10T03:58:47.756Z,9.37
2018-07-10T04:01:16.578Z,10.97
2018-07-10T04:03:45.519Z,14.13
2018-07-10T04:06:14.595Z,12.43
2018-07-10T04:08:43.667Z,8.60
2018-07-10T04:11:12.724Z,11.60
2018-07-10T04:13:42.152Z,11.07
2018-07-10T04:16:11.199Z,12.20
2018-07-10T04:18:40.267Z,15.83
2018-07-10T04:21:20.156Z,13.63
2018-07-10T04:23:50.395Z,9.50
2018-07-10T04:26:22.105Z,8.57
2018-07-10T04:29:02.863Z,10.03
2018-07-10T04:31:53.347Z,11.57
2018-07-10T04:34:22.440Z,10.63
2018-07-10T04:36:51.631Z,10.03
2018-07-10T04:39:20.710Z,9.43
2018-07-10T04:41:52.017Z,9.30
2018-07-10T04:44:20.964Z,12.67
2018-07-10T04:46:55.171Z,10.43
2018-07-10T04:49:31.477Z,10.37
2018-07-10T04:52:39.875Z,11.20
2018-07-10T04:55:11.668Z,8.47
2018-07-10T04:57:54.349Z,10.20
2018-07-10T05:00:23.556Z,11.63
2018-07-10T05:02:54.164Z,6.33
2018-07-10T05:05:23.907Z,7.80
2018-07-10T05:07:53.716Z,8.87
2018-07-10T05:10:22.810Z,11.73
2018-07-10T05:12:51.860Z,11.40
2018-07-10T05:15:20.679Z,7.00
2018-07-10T05:17:50.337Z,7.37
2018-07-10T05:20:20.325Z,9.20
2018-07-10T05:22:49.492Z,7.33
2018-07-10T05:25:18.850Z,7.60
2018-07-10T05:27:48.826Z,8.77
2018-07-10T05:30:18.492Z,10.03
2018-07-10T05:32:47.944Z,10.03
2018-07-10T05:35:17.623Z,7.07
2018-07-10T05:37:46.896Z,8.00
2018-07-10T05:40:15.838Z,5.73
2018-07-10T05:42:46.885Z,5.50
2018-07-10T05:45:17.836Z,6.63
2018-07-10T05:47:47.212Z,6.10
2018-07-10T05:50:17.579Z,6.17
2018-07-10T05:52:46.741Z,6.33
2018-07-10T05:55:16.563Z,7.30
2018-07-10T05:57:45.863Z,7.77
2018-07-10T06:00:14.924Z,5.17
2018-07-10T06:02:44.012Z,6.27
2018-07-10T06:05:13.095Z,5.47
2018-07-10T06:07:42.207Z,5.20
2018-07-10T06:10:11.268Z,5.43
2018-07-10T06:12:40.318Z,6.00
2018-07-10T06:15:09.140Z,5.57
2018-07-10T06:17:38.056Z,5.93
2018-07-10T06:20:07.131Z,5.50
2018-07-10T06:22:36.184Z,5.93
2018-07-10T06:25:07.064Z,5.40
2018-07-10T06:27:39.974Z,6.30
2018-07-10T06:30:10.439Z,4.87
2018-07-10T06:33:13.803Z,6.73
2018-07-10T06:35:48.088Z,4.80
2018-07-10T06:38:18.311Z,4.60
2018-07-10T06:40:50.292Z,4.47
2018-07-10T06:43:39.126Z,5.53
2018-07-10T06:46:08.193Z,5.87
2018-07-10T06:48:41.268Z,5.20
2018-07-10T06:51:14.012Z,4.60
2018-07-10T06:53:43.615Z,4.90
2018-07-10T06:56:12.916Z,5.37
2018-07-10T06:58:41.959Z,4.60
2018-07-10T07:01:10.823Z,5.63
2018-07-10T07:03:40.595Z,4.80
2018-07-10T07:06:10.056Z,5.87
2018-07-10T07:08:39.099Z,4.23
2018-07-10T07:11:08.271Z,4.97
2018-07-10T07:13:37.955Z,5.87
2018-07-10T07:16:06.924Z,4.80
2018-07-10T07:18:35.980Z,6.90
2018-07-10T07:21:05.039Z,5.90
2018-07-10T07:23:34.083Z,4.33
2018-07-10T07:26:03.160Z,5.00
2018-07-10T07:28:32.207Z,5.43
2018-07-10T07:31:01.284Z,5.83
2018-07-10T07:33:30.350Z,6.17
2018-07-10T07:35:59.420Z,7.70
2018-07-10T07:38:28.467Z,5.33
2018-07-10T07:40:57.532Z,5.07
2018-07-10T07:43:26.584Z,4.57
2018-07-10T07:45:55.715Z,4.03
2018-07-10T07:48:24.759Z,3.47
2018-07-10T07:50:53.831Z,5.00
2018-07-10T07:53:22.881Z,4.67
2018-07-10T07:55:51.953Z,6.97
2018-07-10T07:58:21.009Z,3.93
2018-07-10T08:00:50.087Z,3.00
2018-07-10T08:03:19.131Z,5.63
2018-07-10T08:05:48.188Z,4.67
2018-07-10T08:08:17.285Z,2.87
2018-07-10T08:10:46.114Z,3.43
2018-07-10T08:13:15.060Z,4.17
2018-07-10T08:15:44.099Z,5.50
2018-07-10T08:18:13.220Z,9.83
2018-07-10T08:20:42.268Z,4.63
2018-07-10T08:23:11.376Z,4.03
2018-07-10T08:25:40.423Z,5.27
2018-07-10T08:28:10.091Z,7.73
2018-07-10T08:30:39.126Z,4.63
2018-07-10T08:33:08.313Z,5.23
2018-07-10T08:35:37.364Z,4.40
2018-07-10T08:38:06.431Z,4.27
2018-07-10T08:40:35.500Z,2.70
2018-07-10T08:43:05.234Z,4.77
2018-07-10T08:45:34.269Z,3.30
2018-07-10T08:48:03.467Z,3.83
2018-07-10T08:50:32.541Z,5.07
2018-07-10T08:53:01.605Z,3.87
2018-07-10T08:55:30.647Z,7.10
2018-07-10T08:57:59.713Z,6.00
2018-07-10T09:00:28.766Z,5.83
2018-07-10T09:02:57.835Z,5.00
2018-07-10T09:05:26.875Z,6.57
2018-07-10T09:07:55.982Z,5.67
2018-07-10T09:10:25.076Z,2.53
2018-07-10T09:12:54.143Z,5.57
2018-07-10T09:15:23.179Z,7.90
2018-07-10T09:17:52.248Z,5.17
2018-07-10T09:20:26.980Z,4.07
2018-07-10T09:22:56.053Z,2.80
2018-07-10T09:25:25.091Z,6.77
2018-07-10T09:27:55.044Z,5.17
2018-07-10T09:30:24.092Z,4.43
2018-07-10T09:32:53.150Z,6.60
2018-07-10T09:35:22.195Z,7.40
2018-07-10T09:37:51.259Z,9.53
2018-07-10T09:40:21.548Z,7.63
2018-07-10T09:42:56.121Z,6.30
2018-07-10T09:45:26.409Z,2.93
2018-07-10T09:47:55.584Z,5.77
2018-07-10T09:50:24.371Z,6.73
2018-07-10T09:52:53.327Z,6.80
2018-07-10T09:55:22.403Z,6.67
2018-07-10T09:57:51.749Z,5.00
2018-07-10T10:00:25.019Z,6.70
2018-07-10T10:02:54.083Z,3.80
2018-07-10T10:05:23.136Z,6.80
2018-07-10T10:07:52.272Z,3.30
2018-07-10T10:10:21.320Z,4.63
2018-07-10T10:12:50.391Z,4.77
2018-07-10T10:15:19.444Z,4.20
2018-07-10T10:17:48.524Z,6.03
2018-07-10T10:20:17.570Z,5.27
2018-07-10T10:22:46.648Z,3.80
2018-07-10T10:25:15.704Z,6.27
2018-07-10T10:27:44.775Z,4.03
2018-07-10T10:30:13.840Z,3.60
2018-07-10T10:32:42.916Z,5.13
2018-07-10T10:35:11.960Z,4.97
2018-07-10T10:37:41.016Z,3.47
2018-07-10T10:40:10.078Z,5.37
2018-07-10T10:42:39.123Z,4.13
2018-07-10T10:45:08.190Z,4.63
2018-07-10T10:47:37.248Z,4.07
2018-07-10T10:50:07.030Z,4.00
2018-07-10T10:52:36.076Z,3.90
2018-07-10T10:55:04.994Z,8.47
2018-07-10T10:57:37.171Z,6.47
2018-07-10T11:00:06.601Z,6.30
2018-07-10T11:02:36.295Z,8.70
2018-07-10T11:05:05.353Z,4.47
2018-07-10T11:07:36.283Z,4.87
2018-07-10T11:10:05.259Z,4.20
2018-07-10T11:12:34.672Z,6.17
2018-07-10T11:15:04.987Z,6.40
2018-07-10T11:17:36.949Z,5.00
2018-07-10T11:20:13.912Z,6.53
2018-07-10T11:22:52.078Z,4.57
2018-07-10T11:25:22.120Z,8.27
2018-07-10T11:27:59.179Z,4.47
2018-07-10T11:30:28.367Z,5.60
2018-07-10T11:32:57.411Z,4.87
2018-07-10T11:35:26.479Z,5.57
2018-07-10T11:37:56.728Z,4.80
2018-07-10T11:40:26.443Z,5.10
2018-07-10T11:42:55.483Z,5.60
2018-07-10T11:45:25.467Z,4.73
2018-07-10T11:47:54.512Z,7.90
2018-07-10T11:50:23.331Z,6.27
2018-07-10T11:52:52.268Z,6.60
2018-07-10T11:55:21.412Z,4.83
2018-07-10T11:57:50.461Z,8.37
2018-07-10T12:00:20.203Z,4.80
2018-07-10T12:02:50.131Z,4.90
2018-07-10T12:05:20.391Z,6.47
2018-07-10T12:07:54.988Z,5.60
2018-07-10T12:10:29.329Z,5.70
2018-07-10T12:12:58.411Z,5.97
2018-07-10T12:15:27.488Z,6.97
2018-07-10T12:17:57.382Z,5.87
2018-07-10T12:20:28.082Z,5.27
2018-07-10T12:22:57.844Z,4.37
2018-07-10T12:25:26.915Z,5.70
2018-07-10T12:27:56.289Z,4.43
2018-07-10T12:30:25.373Z,4.33
2018-07-10T12:32:54.423Z,4.83
2018-07-10T12:35:23.234Z,3.97
2018-07-10T12:37:52.147Z,3.60
2018-07-10T12:40:21.215Z,3.70
2018-07-10T12:42:50.269Z,3.63
2018-07-10T12:45:19.340Z,4.23
2018-07-10T12:47:48.392Z,3.10
2018-07-10T12:50:17.216Z,3.77
2018-07-10T12:52:46.131Z,4.17
2018-07-10T12:55:15.272Z,4.23
2018-07-10T12:57:45.388Z,4.70
2018-07-10T13:00:15.148Z,4.13
2018-07-10T13:02:47.291Z,4.60
2018-07-10T13:05:17.135Z,4.90
2018-07-10T13:07:46.216Z,4.77
2018-07-10T13:10:15.319Z,4.97
2018-07-10T13:12:44.912Z,4.97
2018-07-10T13:15:14.245Z,4.57
2018-07-10T13:17:45.348Z,4.13
2018-07-10T13:20:15.067Z,6.57
2018-07-10T13:22:44.111Z,4.83
2018-07-10T13:25:13.243Z,4.50
2018-07-10T13:27:42.319Z,4.40
2018-07-10T13:30:11.110Z,4.07
2018-07-10T13:32:40.055Z,3.90
2018-07-10T13:35:09.103Z,4.00
2018-07-10T13:37:40.523Z,4.20
2018-07-10T13:40:09.576Z,4.00
2018-07-10T13:42:47.767Z,3.40
2018-07-10T13:45:17.831Z,3.93
2018-07-10T13:47:46.913Z,4.47
2018-07-10T13:50:19.094Z,3.50
2018-07-10T13:52:48.204Z,4.03
2018-07-10T13:55:17.476Z,3.00
2018-07-10T13:58:09.246Z,4.47
2018-07-10T14:00:40.774Z,3.17
2018-07-10T14:03:09.844Z,3.47
2018-07-10T14:05:39.256Z,2.80
2018-07-10T14:08:08.327Z,2.70
2018-07-10T14:10:37.176Z,2.13
2018-07-10T14:13:06.847Z,2.63
2018-07-10T14:15:35.936Z,2.30
2018-07-10T14:18:05.348Z,4.03
2018-07-10T14:20:43.287Z,2.30
2018-07-10T14:23:12.760Z,3.55
2018-07-10T14:25:42.000Z,2.52
2018-07-10T14:28:11.470Z,1.98
2018-07-10T14:30:40.580Z,2.95
2018-07-10T14:33:09.626Z,2.20
2018-07-10T14:35:38.423Z,2.50
2018-07-10T14:38:09.292Z,2.40
2018-07-10T14:40:43.271Z,3.30
2018-07-10T14:43:14.445Z,2.30
2018-07-10T14:45:43.487Z,2.05
2018-07-10T14:48:12.557Z,2.50
2018-07-10T14:50:41.599Z,4.00
2018-07-10T14:53:10.443Z,2.17
2018-07-10T14:55:39.368Z,2.85
2018-07-10T14:58:08.431Z,2.20
2018-07-10T15:00:37.499Z,2.40
2018-07-10T15:03:06.567Z,2.55
2018-07-10T15:05:35.619Z,2.12
2018-07-10T15:08:04.779Z,2.35
2018-07-10T15:10:33.787Z,1.85
2018-07-10T15:13:02.852Z,1.90
2018-07-10T15:15:31.951Z,2.47
2018-07-10T15:18:06.384Z,2.52
2018-07-10T15:20:35.184Z,3.00
2018-07-10T15:23:05.719Z,4.47
2018-07-10T15:25:34.763Z,2.20
2018-07-10T15:28:04.026Z,2.57
2018-07-10T15:30:33.311Z,2.87
2018-07-10T15:33:02.379Z,2.50
2018-07-10T15:35:31.431Z,4.40
2018-07-10T15:38:00.907Z,2.40
2018-07-10T15:40:30.060Z,2.37
2018-07-10T15:42:59.127Z,2.03
2018-07-10T15:45:28.180Z,2.50
2018-07-10T15:47:57.253Z,2.40
2018-07-10T15:50:26.300Z,3.07
2018-07-10T15:52:55.360Z,2.23
2018-07-10T15:55:24.405Z,2.20
2018-07-10T15:57:53.496Z,2.83
2018-07-10T16:00:22.539Z,2.43
2018-07-10T16:02:51.611Z,2.40
2018-07-10T16:05:20.684Z,3.83
2018-07-10T16:07:49.835Z,2.00
2018-07-10T16:10:19.116Z,2.17
2018-07-10T16:12:48.187Z,2.00
2018-07-10T16:15:17.236Z,2.07
2018-07-10T16:17:46.312Z,1.77
2018-07-10T16:20:15.359Z,2.10
2018-07-10T16:22:44.427Z,1.70
2018-07-10T16:25:25.820Z,2.00
2018-07-10T16:27:56.119Z,2.67
2018-07-10T16:30:25.807Z,1.70
2018-07-10T16:32:54.756Z,2.37
2018-07-10T16:35:27.456Z,2.70
2018-07-10T16:37:58.271Z,3.00
2018-07-10T16:40:27.320Z,2.60
2018-07-10T16:42:57.203Z,2.00
2018-07-10T16:45:36.156Z,2.40
2018-07-10T16:48:21.811Z,3.37
2018-07-10T16:50:59.283Z,1.90
2018-07-10T16:53:32.996Z,4.97
2018-07-10T16:56:02.076Z,2.77
2018-07-10T16:58:33.438Z,2.30
2018-07-10T17:01:02.489Z,2.43
2018-07-10T17:03:31.600Z,2.27
2018-07-10T17:06:00.400Z,2.43
2018-07-10T17:08:29.351Z,3.17
2018-07-10T17:10:58.412Z,2.00
2018-07-10T17:13:27.475Z,2.93
2018-07-10T17:15:56.519Z,2.77
2018-07-10T17:18:25.587Z,2.07
2018-07-10T17:20:54.648Z,2.20
2018-07-10T17:23:23.716Z,2.40
2018-07-10T17:25:52.764Z,2.60
2018-07-10T17:28:21.835Z,2.30
2018-07-10T17:30:50.902Z,2.63
2018-07-10T17:33:19.960Z,2.47
2018-07-10T17:35:49.023Z,2.40
2018-07-10T17:38:18.071Z,2.40
2018-07-10T17:40:47.139Z,3.60
2018-07-10T17:43:17.368Z,1.97
2018-07-10T17:45:46.436Z,2.10
2018-07-10T17:48:15.475Z,2.20
2018-07-10T17:50:44.545Z,3.03
2018-07-10T17:53:13.335Z,1.80
2018-07-10T17:55:42.281Z,2.03
2018-07-10T17:58:11.338Z,2.17
2018-07-10T18:00:40.459Z,2.47
2018-07-10T18:03:09.488Z,4.63
2018-07-10T18:05:38.556Z,1.50
2018-07-10T18:08:07.631Z,2.33
2018-07-10T18:10:36.718Z,2.83
2018-07-10T18:13:06.011Z,2.03
2018-07-10T18:15:35.080Z,1.60
2018-07-10T18:18:04.140Z,1.80
2018-07-10T18:20:33.207Z,1.90
2018-07-10T18:23:02.945Z,2.47
2018-07-10T18:25:31.891Z,1.67
2018-07-10T18:28:00.693Z,2.07
2018-07-10T18:30:29.636Z,1.67
2018-07-10T18:32:58.687Z,1.93
2018-07-10T18:35:27.767Z,3.93
2018-07-10T18:37:56.567Z,1.80
2018-07-10T18:40:25.511Z,2.43
2018-07-10T18:42:54.559Z,2.47
2018-07-10T18:45:24.118Z,2.30
2018-07-10T18:47:53.192Z,1.77
2018-07-10T18:50:22.267Z,2.00
2018-07-10T18:52:52.920Z,1.80
2018-07-10T18:55:21.991Z,3.17
2018-07-10T18:57:58.033Z,2.20
2018-07-10T19:00:29.365Z,2.10
2018-07-10T19:03:09.050Z,2.00
2018-07-10T19:05:49.386Z,2.13
2018-07-10T19:08:18.646Z,2.33
2018-07-10T19:10:47.801Z,2.30
2018-07-10T19:13:17.627Z,2.37
2018-07-10T19:15:47.762Z,2.20
2018-07-10T19:18:17.355Z,2.30
2018-07-10T19:20:59.287Z,2.70
2018-07-10T19:23:36.835Z,3.27
2018-07-10T19:26:06.764Z,2.97
2018-07-10T19:28:35.970Z,2.80
2018-07-10T19:31:12.228Z,2.73
2018-07-10T19:33:41.892Z,2.63
2018-07-10T19:36:10.973Z,3.03
2018-07-10T19:38:40.235Z,2.67
2018-07-10T19:41:09.655Z,2.53
2018-07-10T19:43:38.720Z,3.13
2018-07-10T19:46:07.803Z,3.07
2018-07-10T19:48:36.868Z,2.50
2018-07-10T19:51:08.860Z,3.10
2018-07-10T19:53:38.091Z,2.80
2018-07-10T19:56:07.043Z,3.37
2018-07-10T19:58:36.611Z,4.77
2018-07-10T20:01:11.881Z,3.70
2018-07-10T20:03:51.556Z,3.30
2018-07-10T20:06:27.670Z,3.90
2018-07-10T20:09:01.047Z,3.60
2018-07-10T20:12:35.484Z,4.30
2018-07-10T20:15:27.304Z,3.93
2018-07-10T20:18:14.003Z,4.57
2018-07-10T20:21:20.704Z,5.03
2018-07-10T20:23:57.768Z,5.60
2018-07-10T20:26:35.767Z,5.97
2018-07-10T20:29:28.965Z,7.13
2018-07-10T20:32:03.372Z,7.33
2018-07-10T20:34:42.143Z,7.47
2018-07-10T20:37:15.391Z,6.93
2018-07-10T20:39:44.512Z,6.53
2018-07-10T20:42:13.639Z,6.80
2018-07-10T20:45:17.848Z,7.07
2018-07-10T20:47:53.656Z,7.17
2018-07-10T20:50:34.502Z,6.47
2018-07-10T20:53:09.887Z,6.80
2018-07-10T20:55:42.195Z,7.83
2018-07-10T20:58:12.402Z,7.43
2018-07-10T21:00:46.808Z,7.03
2018-07-10T21:03:52.133Z,7.50
2018-07-10T21:06:49.696Z,8.60
2018-07-10T21:09:20.044Z,7.53
2018-07-10T21:12:07.328Z,8.60
2018-07-10T21:15:18.037Z,6.83
2018-07-10T21:20:02.489Z,7.23
2018-07-10T21:22:42.937Z,7.20
2018-07-10T21:25:19.384Z,7.10
2018-07-10T21:27:55.347Z,8.10
2018-07-10T21:30:27.017Z,7.57
2018-07-10T21:33:06.472Z,7.30
2018-07-10T21:35:43.497Z,7.37
2018-07-10T21:38:16.648Z,7.30
2018-07-10T21:40:59.756Z,7.70
2018-07-10T21:43:38.744Z,8.10
2018-07-10T21:46:12.218Z,8.10
2018-07-10T21:48:50.832Z,8.53
2018-07-10T21:51:20.004Z,8.50
2018-07-10T21:53:49.107Z,7.90
2018-07-10T21:56:18.193Z,8.77
2018-07-10T21:58:48.415Z,8.50
2018-07-10T22:01:38.089Z,7.37
2018-07-10T22:04:07.223Z,11.47
2018-07-10T22:06:36.992Z,10.27
2018-07-10T22:09:06.747Z,9.03
2018-07-10T22:11:36.529Z,8.80
2018-07-10T22:14:05.720Z,8.03
2018-07-10T22:16:34.793Z,8.80
2018-07-10T22:19:04.407Z,10.33
2018-07-10T22:21:33.645Z,13.37
2018-07-10T22:24:02.696Z,10.87
2018-07-10T22:26:32.012Z,11.37
2018-07-10T22:29:01.636Z,10.00
2018-07-10T22:31:36.913Z,10.37
2018-07-10T22:34:05.964Z,9.70
2018-07-10T22:36:35.026Z,10.03
2018-07-10T22:39:04.599Z,9.83
2018-07-10T22:41:33.544Z,9.63
2018-07-10T22:44:02.656Z,11.57
2018-07-10T22:46:32.307Z,10.83
2018-07-10T22:49:05.263Z,10.07
2018-07-10T22:51:34.478Z,10.17
2018-07-10T22:54:04.119Z,10.77
2018-07-10T22:56:34.416Z,10.70
2018-07-10T22:59:03.995Z,9.97
2018-07-10T23:01:34.964Z,10.60
2018-07-10T23:04:03.784Z,12.30
2018-07-10T23:06:33.055Z,13.17
2018-07-10T23:09:01.872Z,12.40
2018-07-10T23:11:30.719Z,13.43
2018-07-10T23:13:59.287Z,11.20
2018-07-10T23:16:28.703Z,12.27
2018-07-10T23:18:57.267Z,11.93
2018-07-10T23:21:25.799Z,12.57
2018-07-10T23:23:54.523Z,15.23
2018-07-10T23:26:23.380Z,13.37
2018-07-10T23:28:53.372Z,16.73
2018-07-10T23:31:24.069Z,16.60
2018-07-10T23:34:27.755Z,17.07
2018-07-10T23:36:57.952Z,15.10
2018-07-10T23:39:33.256Z,16.97
2018-07-10T23:42:09.132Z,19.37
2018-07-10T23:44:38.662Z,17.60
2018-07-10T23:47:40.719Z,18.37
2018-07-10T23:50:17.359Z,15.67
2018-07-10T23:53:16.911Z,20.33
2018-07-10T23:55:45.746Z,19.83
2018-07-10T23:58:14.840Z,21.47
